Time;durP1;ratioP1;P1;durP2;ratioP2;P2;SDS_P1;SDS_P2;PMS_P1;PMS_P2;Temp;Humidity;BMP_temperature;BMP_pressure;BME280_temperature;BME280_humidity;BME280_pressure;Samples;Min_cycle;Max_cycle;Signal;HPM_P1;HPM_P2
2022/11/02 00:01:29;;;;;;;20.63;12.10;;;;;;;8.96;100.00;99335.09;5000547;28;20046;-61
2022/11/02 00:04:14;;;;;;;15.32;8.75;;;;;;;9.05;100.00;99332.94;4997411;28;20080;-61
2022/11/02 00:06:59;;;;;;;17.23;10.63;;;;;;;9.16;100.00;99340.19;4992979;28;20509;-60
2022/11/02 00:09:44;;;;;;;20.33;10.40;;;;;;;9.06;100.00;99352.91;4999428;28;20585;-60
2022/11/02 00:12:29;;;;;;;16.88;10.02;;;;;;;9.05;100.00;99359.06;5002921;28;20140;-61
2022/11/02 00:15:14;;;;;;;21.33;12.38;;;;;;;8.99;100.00;99355.84;4999745;28;20060;-62
2022/11/02 00:18:08;;;;;;;14.23;9.20;;;;;;;8.96;100.00;99357.78;4999352;28;20046;-60
2022/11/02 00:20:54;;;;;;;31.77;10.63;;;;;;;8.97;100.00;99356.84;4999821;28;20116;-60
2022/11/02 00:23:40;;;;;;;16.83;9.75;;;;;;;8.84;100.00;99349.66;4981803;28;20096;-60
2022/11/02 00:26:27;;;;;;;22.48;12.95;;;;;;;8.89;100.00;99356.41;4998011;28;20077;-60
2022/11/02 00:29:11;;;;;;;16.95;10.02;;;;;;;8.92;100.00;99358.88;4997015;28;20079;-60
2022/11/02 00:31:55;;;;;;;14.13;8.57;;;;;;;8.90;100.00;99360.69;4968796;28;20046;-60
2022/11/02 00:34:40;;;;;;;33.35;10.13;;;;;;;8.88;100.00;99371.25;4982835;28;20046;-60
2022/11/02 00:37:24;;;;;;;60.50;11.23;;;;;;;8.84;100.00;99372.34;5000089;28;20549;-59
2022/11/02 00:40:10;;;;;;;23.30;10.40;;;;;;;8.78;100.00;99368.25;4973915;28;20038;-59
2022/11/02 00:42:55;;;;;;;18.17;9.90;;;;;;;8.78;100.00;99378.69;4982306;28;20132;-59
2022/11/02 00:45:39;;;;;;;17.30;9.90;;;;;;;8.80;100.00;99376.00;4994903;28;20598;-60
2022/11/02 00:48:24;;;;;;;31.90;9.75;;;;;;;8.78;100.00;99378.69;4994908;28;20288;-60
2022/11/02 00:51:10;;;;;;;44.72;12.45;;;;;;;8.72;100.00;99379.03;4994080;28;20100;-59
2022/11/02 00:53:57;;;;;;;27.25;10.57;;;;;;;8.69;100.00;99379.19;4998796;28;20074;-61
2022/11/02 00:56:42;;;;;;;31.88;9.55;;;;;;;8.77;100.00;99379.63;4995407;28;20054;-59
2022/11/02 00:59:27;;;;;;;25.40;11.40;;;;;;;8.74;100.00;99367.59;4989742;28;20050;-63
2022/11/02 01:02:14;;;;;;;11.02;7.05;;;;;;;8.78;100.00;99375.28;4981268;28;20382;-61
2022/11/02 01:04:58;;;;;;;17.42;10.43;;;;;;;8.78;100.00;99365.63;4993267;28;20038;-59
2022/11/02 01:07:43;;;;;;;11.85;8.00;;;;;;;8.92;100.00;99370.16;4989370;28;20061;-60
2022/11/02 01:10:27;;;;;;;16.23;9.90;;;;;;;9.04;100.00;99365.22;4987878;28;20129;-58
2022/11/02 01:13:12;;;;;;;15.93;10.27;;;;;;;9.05;100.00;99372.13;4993224;28;20497;-60
2022/11/02 01:15:57;;;;;;;13.50;8.18;;;;;;;9.15;100.00;99375.97;4987090;28;20053;-61
2022/11/02 01:18:42;;;;;;;15.85;10.07;;;;;;;9.24;100.00;99374.59;4995121;28;20497;-60
2022/11/02 01:21:27;;;;;;;16.52;10.52;;;;;;;9.23;100.00;99370.31;4991476;28;20048;-60
2022/11/02 01:24:11;;;;;;;16.23;9.82;;;;;;;9.27;100.00;99366.59;5001422;28;20062;-60
2022/11/02 01:26:56;;;;;;;12.15;7.65;;;;;;;9.28;100.00;99375.28;4991118;28;20111;-60
2022/11/02 01:29:41;;;;;;;14.38;8.60;;;;;;;9.30;100.00;99370.84;4977528;28;20056;-59
2022/11/02 01:32:29;;;;;;;12.65;8.10;;;;;;;9.27;100.00;99374.44;4977671;28;20908;-63
2022/11/02 01:35:15;;;;;;;12.77;7.55;;;;;;;9.27;100.00;99371.81;4977398;28;20134;-60
2022/11/02 01:38:00;;;;;;;17.45;10.10;;;;;;;9.29;100.00;99363.91;4993116;28;20038;-59
2022/11/02 01:40:45;;;;;;;19.30;10.60;;;;;;;9.30;100.00;99363.81;4980517;28;20042;-59
2022/11/02 01:43:34;;;;;;;15.95;9.50;;;;;;;9.35;100.00;99361.81;4983865;28;20173;-59
2022/11/02 01:46:39;;;;;;;12.85;7.63;;;;;;;9.28;100.00;99364.84;4983288;28;20034;-59
2022/11/02 01:49:24;;;;;;;11.75;7.72;;;;;;;9.24;100.00;99370.25;4994828;28;20077;-59
2022/11/02 01:52:15;;;;;;;13.63;8.00;;;;;;;9.24;100.00;99353.69;4993328;28;20059;-62
2022/11/02 01:55:29;;;;;;;13.15;7.93;;;;;;;9.18;100.00;99357.50;4979305;28;20523;-60
2022/11/02 01:58:13;;;;;;;16.73;9.32;;;;;;;9.16;100.00;99356.72;4994963;28;20124;-61
2022/11/02 02:00:59;;;;;;;15.40;9.10;;;;;;;9.09;100.00;99355.38;4993751;28;20494;-60
2022/11/02 02:03:44;;;;;;;12.88;7.47;;;;;;;9.13;100.00;99351.66;4975110;28;20061;-59
2022/11/02 02:06:30;;;;;;;16.60;9.43;;;;;;;9.16;100.00;99353.25;4994058;28;20045;-60
2022/11/02 02:09:17;;;;;;;12.02;7.28;;;;;;;9.32;100.00;99351.50;4997563;28;20043;-60
2022/11/02 02:12:04;;;;;;;9.55;6.57;;;;;;;9.43;100.00;99342.25;4979665;28;20081;-61
2022/11/02 02:14:49;;;;;;;11.65;7.22;;;;;;;9.36;100.00;99341.75;4996148;28;20039;-59
2022/11/02 02:17:52;;;;;;;12.95;7.35;;;;;;;9.42;100.00;99336.16;4981581;28;20204;-61
2022/11/02 02:20:42;;;;;;;;;;;;;;;9.45;100.00;99337.78;4996318;28;20069;-59
2022/11/02 02:24:15;;;;;;;12.38;8.48;;;;;;;9.44;100.00;99336.94;4975426;28;20012;-58
2022/11/02 02:27:17;;;;;;;17.55;10.02;;;;;;;9.56;100.00;99351.13;4943410;29;20051;-60
2022/11/02 02:30:08;;;;;;;20.75;10.00;;;;;;;9.61;100.00;99336.00;4945414;28;20051;-59
2022/11/02 02:33:02;;;;;;;16.30;9.80;;;;;;;9.66;100.00;99345.38;4944995;28;20499;-59
2022/11/02 02:36:05;;;;;;;20.45;10.77;;;;;;;9.38;100.00;99339.91;4942879;28;20123;-59
2022/11/02 02:39:02;;;;;;;19.48;10.75;;;;;;;9.33;100.00;99341.91;4943915;28;20043;-60
2022/11/02 02:42:00;;;;;;;17.35;10.35;;;;;;;9.32;100.00;99354.13;4946363;28;20043;-60
2022/11/02 02:44:57;;;;;;;15.32;9.25;;;;;;;9.40;100.00;99360.72;4945225;28;20043;-59
2022/11/02 02:47:49;;;;;;;11.63;7.10;;;;;;;9.40;100.00;99355.50;4928351;29;20202;-59
2022/11/02 02:50:43;;;;;;;16.90;10.35;;;;;;;9.41;100.00;99365.88;4944504;28;20530;-59
2022/11/02 02:53:37;;;;;;;17.67;10.05;;;;;;;9.43;100.00;99369.25;4932965;28;20126;-59
2022/11/02 02:56:24;;;;;;;12.98;7.93;;;;;;;9.55;100.00;99369.50;4943724;29;20086;-59
2022/11/02 02:59:20;;;;;;;14.85;8.30;;;;;;;9.48;100.00;99369.81;4943839;29;20052;-60
2022/11/02 03:02:09;;;;;;;10.82;7.15;;;;;;;9.45;100.00;99371.78;4939237;28;20561;-60
2022/11/02 03:04:54;;;;;;;16.23;10.05;;;;;;;9.42;100.00;99380.63;4991755;28;20129;-59
2022/11/02 03:07:39;;;;;;;12.57;7.85;;;;;;;9.43;100.00;99377.09;4980080;28;20499;-60
2022/11/02 03:10:34;;;;;;;12.88;7.47;;;;;;;9.46;100.00;99382.16;4980565;28;20357;-61
2022/11/02 03:13:37;;;;;;;12.00;8.02;;;;;;;9.53;100.00;99389.69;4992765;28;20034;-60
2022/11/02 03:16:41;;;;;;;16.33;9.23;;;;;;;9.60;100.00;99380.56;4977532;28;20482;-60
2022/11/02 03:19:34;;;;;;;15.13;9.30;;;;;;;9.68;100.00;99377.50;4976516;28;20104;-59
2022/11/02 03:22:40;;;;;;;10.77;7.00;;;;;;;9.75;100.00;99384.09;4993078;28;20050;-63
2022/11/02 03:25:38;;;;;;;12.70;7.88;;;;;;;9.81;100.00;99388.16;4988101;28;20093;-61
2022/11/02 03:28:37;;;;;;;16.75;8.85;;;;;;;9.93;100.00;99394.47;4992892;28;20069;-61
2022/11/02 03:31:26;;;;;;;15.93;9.20;;;;;;;10.00;100.00;99390.59;4986593;28;20042;-61
2022/11/02 03:34:37;;;;;;;22.95;11.75;;;;;;;10.07;100.00;99399.78;4992901;28;20087;-59
2022/11/02 03:37:39;;;;;;;15.77;9.93;;;;;;;10.13;100.00;99402.97;4995692;28;20054;-61
2022/11/02 03:40:32;;;;;;;20.88;11.50;;;;;;;10.16;100.00;99401.03;4989183;28;20465;-61
2022/11/02 03:43:20;;;;;;;17.10;10.13;;;;;;;10.23;100.00;99396.31;4963461;28;20067;-60
2022/11/02 03:46:11;;;;;;;23.73;11.30;;;;;;;10.23;100.00;99401.53;4946571;28;20054;-61
2022/11/02 03:48:59;;;;;;;19.67;9.80;;;;;;;10.23;100.00;99404.16;4965124;28;20047;-61
2022/11/02 03:51:46;;;;;;;22.83;11.05;;;;;;;10.17;100.00;99400.09;4950732;28;20176;-58
2022/11/02 03:54:58;;;;;;;16.67;9.23;;;;;;;10.05;100.00;99403.41;4965847;28;20086;-60
2022/11/02 03:57:46;;;;;;;15.18;8.65;;;;;;;9.80;100.00;99412.63;4954151;28;20059;-62
2022/11/02 04:00:34;;;;;;;12.07;7.50;;;;;;;9.65;100.00;99403.84;4965601;28;20051;-60
2022/11/02 04:03:24;;;;;;;17.55;9.13;;;;;;;9.74;100.00;99419.06;4964426;28;20061;-60
2022/11/02 04:06:11;;;;;;;11.88;6.95;;;;;;;9.89;100.00;99414.72;4951972;28;20125;-60
2022/11/02 04:08:56;;;;;;;18.73;10.32;;;;;;;9.98;100.00;99416.84;4950947;28;20051;-61
2022/11/02 04:14:46;;;;;;;13.73;7.75;;;;;;;9.92;100.00;99406.69;4966040;28;20081;-61
2022/11/02 04:20:38;;;;;;;18.55;10.45;;;;;;;9.69;100.00;99421.94;4964284;28;20058;-60
2022/11/02 04:26:26;;;;;;;21.52;11.00;;;;;;;9.75;100.00;99418.13;4969488;28;20047;-59
2022/11/02 04:29:11;;;;;;;10.70;6.90;;;;;;;9.86;100.00;99412.28;4993524;28;20050;-60
2022/11/02 04:31:57;;;;;;;12.80;8.25;;;;;;;9.85;100.00;99421.94;4995981;28;20077;-60
2022/11/02 04:34:41;;;;;;;13.85;8.60;;;;;;;9.68;100.00;99417.59;4994307;28;20042;-60
2022/11/02 04:40:29;;;;;;;13.43;7.93;;;;;;;9.71;100.00;99414.00;4977952;28;20056;-59
2022/11/02 04:43:15;;;;;;;11.93;7.15;;;;;;;9.72;100.00;99413.06;4994839;28;20042;-61
2022/11/02 04:46:00;;;;;;;12.57;6.10;;;;;;;9.67;100.00;99410.69;4995372;28;20046;-60
2022/11/02 04:48:45;;;;;;;13.32;8.10;;;;;;;9.87;100.00;99400.91;4994606;28;20049;-61
2022/11/02 04:51:30;;;;;;;15.25;8.50;;;;;;;9.92;100.00;99405.88;4982712;28;20050;-60
2022/11/02 04:54:16;;;;;;;18.08;10.23;;;;;;;9.84;100.00;99398.47;4989033;28;20054;-59
2022/11/02 04:57:01;;;;;;;16.25;10.00;;;;;;;9.92;100.00;99409.31;4990501;28;20088;-60
2022/11/02 04:59:47;;;;;;;13.13;7.78;;;;;;;10.01;100.00;99404.50;4980692;28;20108;-59
2022/11/02 05:02:31;;;;;;;12.10;6.97;;;;;;;10.07;100.00;99396.34;4993339;28;20038;-60
2022/11/02 05:05:17;;;;;;;11.75;7.47;;;;;;;10.12;100.00;99403.94;4985131;28;20071;-60
2022/11/02 05:08:01;;;;;;;15.57;8.85;;;;;;;10.13;100.00;99403.84;4989553;28;20389;-60
2022/11/02 05:10:47;;;;;;;13.45;7.32;;;;;;;10.18;100.00;99396.56;4992544;28;20054;-60
2022/11/02 05:13:32;;;;;;;11.80;7.90;;;;;;;10.22;100.00;99400.69;4996794;28;20459;-60
2022/11/02 05:16:17;;;;;;;13.82;7.47;;;;;;;10.26;100.00;99397.88;4983034;28;20073;-61
2022/11/02 05:19:03;;;;;;;11.15;7.43;;;;;;;10.26;100.00;99408.38;4986171;28;20046;-59
2022/11/02 05:21:49;;;;;;;10.90;6.43;;;;;;;10.20;100.00;99413.00;5002095;28;20037;-60
2022/11/02 05:24:33;;;;;;;15.15;8.93;;;;;;;10.20;100.00;99412.19;4996521;28;20126;-59
2022/11/02 05:27:18;;;;;;;11.18;6.57;;;;;;;10.26;100.00;99421.47;4993187;28;20411;-59
2022/11/02 05:30:06;;;;;;;14.73;8.40;;;;;;;10.32;100.00;99426.34;4996111;28;20038;-60
2022/11/02 05:32:56;;;;;;;17.58;10.23;;;;;;;10.34;100.00;99429.72;4978798;28;20485;-60
2022/11/02 05:35:41;;;;;;;20.58;10.45;;;;;;;10.35;100.00;99429.63;4983421;28;20668;-60
2022/11/02 05:38:27;;;;;;;16.50;8.55;;;;;;;10.40;100.00;99437.22;4983112;28;20046;-61
2022/11/02 05:41:11;;;;;;;16.90;10.52;;;;;;;10.67;100.00;99443.63;4995861;28;20537;-59
2022/11/02 05:43:57;;;;;;;8.50;4.97;;;;;;;10.79;100.00;99439.41;4998455;28;20662;-60
2022/11/02 05:46:44;;;;;;;8.38;5.68;;;;;;;10.77;100.00;99447.38;4991867;28;20049;-57
2022/11/02 05:49:29;;;;;;;18.58;9.13;;;;;;;10.63;100.00;99447.34;4993081;28;20072;-58
2022/11/02 05:52:14;;;;;;;13.55;8.30;;;;;;;10.54;100.00;99444.31;4990990;28;20064;-59
2022/11/02 05:54:58;;;;;;;13.48;7.57;;;;;;;10.57;100.00;99445.94;4993617;28;20041;-60
2022/11/02 05:57:49;;;;;;;12.90;7.03;;;;;;;10.61;100.00;99443.97;4999061;28;20097;-58
2022/11/02 06:00:34;;;;;;;16.20;8.85;;;;;;;10.59;100.00;99444.06;4994942;28;20068;-58
2022/11/02 06:03:19;;;;;;;17.15;8.40;;;;;;;10.62;100.00;99443.03;4990525;28;20050;-61
2022/11/02 06:06:06;;;;;;;14.93;8.45;;;;;;;10.68;100.00;99446.16;4994434;28;20114;-60
2022/11/02 06:08:51;;;;;;;16.10;8.25;;;;;;;10.72;100.00;99441.59;4992950;28;20097;-60
2022/11/02 06:11:35;;;;;;;18.10;10.02;;;;;;;10.79;100.00;99450.75;4993218;28;20905;-61
2022/11/02 06:14:20;;;;;;;10.82;7.40;;;;;;;10.87;100.00;99455.53;4979173;28;20042;-58
2022/11/02 06:17:04;;;;;;;14.70;7.88;;;;;;;10.96;100.00;99451.53;4975182;28;20113;-61
2022/11/02 06:19:48;;;;;;;13.40;8.43;;;;;;;11.01;100.00;99459.13;4994265;28;20053;-60
2022/11/02 06:22:40;;;;;;;13.75;6.85;;;;;;;11.13;100.00;99457.56;4993916;28;20209;-45
2022/11/02 06:25:25;;;;;;;13.00;8.05;;;;;;;13.53;100.00;99450.13;4995727;28;20070;-51
2022/11/02 06:28:10;;;;;;;16.42;9.80;;;;;;;14.56;100.00;99462.22;4994073;28;20844;-47
2022/11/02 06:30:56;;;;;;;15.85;7.72;;;;;;;14.98;100.00;99464.41;4994603;28;20895;-47
2022/11/02 06:33:40;;;;;;;15.32;9.18;;;;;;;14.27;100.00;99468.69;4980188;28;20109;-61
2022/11/02 06:36:25;;;;;;;17.25;9.65;;;;;;;13.45;100.00;99477.94;4997857;28;20483;-60
2022/11/02 06:39:11;;;;;;;18.42;9.93;;;;;;;13.38;100.00;99478.31;4989900;28;20053;-60
2022/11/02 06:41:55;;;;;;;20.20;10.73;;;;;;;12.93;100.00;99476.09;4996322;28;20742;-59
2022/11/02 06:44:40;;;;;;;20.63;11.23;;;;;;;12.72;100.00;99475.75;4999370;28;20047;-59
2022/11/02 06:47:29;;;;;;;19.95;10.32;;;;;;;12.44;100.00;99473.16;4995215;28;20187;-60
2022/11/02 06:50:14;;;;;;;17.55;10.45;;;;;;;12.24;100.00;99483.16;4997867;28;20035;-60
2022/11/02 06:52:58;;;;;;;18.27;9.82;;;;;;;12.22;100.00;99485.06;4994960;28;20130;-60
2022/11/02 06:55:43;;;;;;;19.58;10.43;;;;;;;13.33;100.00;99495.41;4995978;28;20073;-58
2022/11/02 06:58:27;;;;;;;17.08;9.88;;;;;;;13.78;100.00;99495.81;4994188;28;20042;-60
2022/11/02 07:01:14;;;;;;;19.70;10.60;;;;;;;14.23;100.00;99502.31;4992955;28;20070;-60
2022/11/02 07:03:58;;;;;;;14.82;9.43;;;;;;;14.68;100.00;99500.84;4995414;28;20461;-59
2022/11/02 07:06:42;;;;;;;17.05;9.05;;;;;;;14.82;100.00;99496.41;5001262;28;20219;-60
2022/11/02 07:09:27;;;;;;;15.10;8.98;;;;;;;15.02;100.00;99497.50;4995339;28;20038;-59
2022/11/02 07:12:12;;;;;;;14.18;8.55;;;;;;;15.54;100.00;99504.19;4989912;28;20121;-59
2022/11/02 07:14:56;;;;;;;16.38;9.20;;;;;;;15.54;100.00;99504.19;4994256;28;20050;-60
2022/11/02 07:17:41;;;;;;;14.55;8.43;;;;;;;15.69;100.00;99500.34;4993023;28;20054;-59
2022/11/02 07:20:25;;;;;;;21.67;12.30;;;;;;;16.08;100.00;99499.13;4991704;28;20046;-61
2022/11/02 07:23:11;;;;;;;14.35;8.63;;;;;;;16.39;99.07;99494.00;4999697;28;20065;-59
2022/11/02 07:25:56;;;;;;;13.30;7.93;;;;;;;16.69;97.76;99508.34;4997270;28;20076;-59
2022/11/02 07:28:40;;;;;;;15.38;7.88;;;;;;;16.60;95.01;99501.13;4996129;28;20046;-59
2022/11/02 07:31:25;;;;;;;12.32;7.43;;;;;;;17.04;96.08;99511.63;5000248;28;20065;-59
2022/11/02 07:34:10;;;;;;;13.65;7.45;;;;;;;17.38;87.75;99502.69;4994473;28;20129;-60
2022/11/02 07:36:55;;;;;;;12.00;7.40;;;;;;;17.61;87.92;99513.06;4993066;28;20037;-61
2022/11/02 07:39:40;;;;;;;16.35;7.40;;;;;;;17.77;86.72;99509.13;4992514;28;20120;-62
2022/11/02 07:42:24;;;;;;;14.50;7.80;;;;;;;17.64;87.55;99514.66;4997645;28;20169;-60
2022/11/02 07:45:09;;;;;;;15.55;7.65;;;;;;;17.94;86.67;99520.88;4982691;28;20491;-60
2022/11/02 07:47:54;;;;;;;12.52;7.45;;;;;;;18.27;83.32;99516.25;4997375;28;20073;-61
2022/11/02 07:50:38;;;;;;;11.55;7.43;;;;;;;18.44;84.15;99513.91;4999102;28;20052;-61
2022/11/02 07:53:23;;;;;;;14.73;7.97;;;;;;;18.69;81.85;99525.78;5003020;28;20054;-60
2022/11/02 07:56:09;;;;;;;10.02;6.70;;;;;;;19.05;81.50;99519.03;4999491;28;20130;-60
2022/11/02 07:58:54;;;;;;;10.27;6.55;;;;;;;19.19;77.66;99515.16;5001127;28;20925;-60
2022/11/02 08:01:38;;;;;;;9.57;6.25;;;;;;;19.32;77.36;99518.31;4986058;28;20042;-59
2022/11/02 08:04:23;;;;;;;9.77;6.70;;;;;;;19.52;73.42;99515.59;4996522;28;20133;-60
2022/11/02 08:07:08;;;;;;;11.30;6.82;;;;;;;19.39;73.65;99510.59;4997430;28;21086;-60
2022/11/02 08:09:53;;;;;;;11.18;6.32;;;;;;;19.49;73.17;99523.03;5002635;28;20057;-62
2022/11/02 08:12:38;;;;;;;15.63;7.03;;;;;;;19.50;74.08;99514.94;4994964;28;20470;-63
2022/11/02 08:15:23;;;;;;;9.55;6.28;;;;;;;19.61;72.96;99516.56;4992305;28;20501;-59
2022/11/02 08:18:16;;;;;;;10.32;6.47;;;;;;;19.98;70.83;99517.50;4977700;28;20039;-61
2022/11/02 08:21:01;;;;;;;14.90;6.05;;;;;;;19.90;70.40;99512.06;4984902;28;20410;-60
2022/11/02 08:23:46;;;;;;;14.63;7.13;;;;;;;19.77;71.33;99507.09;4999589;28;20045;-62
2022/11/02 08:26:31;;;;;;;12.15;6.70;;;;;;;20.33;71.61;99509.78;4982142;28;20096;-61
2022/11/02 08:29:16;;;;;;;9.82;6.03;;;;;;;20.18;70.37;99504.97;4996007;28;20129;-61
2022/11/02 08:32:00;;;;;;;12.52;7.10;;;;;;;20.81;66.71;99517.50;4996972;28;20116;-59
2022/11/02 08:34:45;;;;;;;10.55;6.72;;;;;;;20.46;69.63;99513.88;4998150;28;20045;-61
2022/11/02 08:37:30;;;;;;;12.15;6.97;;;;;;;20.46;69.32;99509.41;4996840;28;20065;-60
2022/11/02 08:40:14;;;;;;;11.40;6.53;;;;;;;20.82;66.97;99511.19;4994714;28;20042;-64
2022/11/02 08:43:00;;;;;;;12.75;6.75;;;;;;;21.53;63.97;99516.53;4996634;28;20120;-61
2022/11/02 08:45:45;;;;;;;11.05;6.38;;;;;;;21.51;63.34;99509.69;4983859;28;20046;-62
2022/11/02 08:48:30;;;;;;;10.20;6.88;;;;;;;21.60;63.98;99507.88;4996907;28;20058;-61
2022/11/02 08:51:24;;;;;;;13.63;6.93;;;;;;;21.45;65.08;99510.28;4965164;28;20054;-61
2022/11/02 08:54:16;;;;;;;12.00;6.65;;;;;;;21.34;63.94;99512.25;4999143;28;20035;-61
2022/11/02 08:57:03;;;;;;;11.07;6.80;;;;;;;21.99;62.25;99517.22;4997244;28;20414;-62
2022/11/02 08:59:47;;;;;;;8.18;6.25;;;;;;;22.50;61.09;99517.19;4997802;28;20038;-62
2022/11/02 09:02:32;;;;;;;10.85;6.68;;;;;;;22.35;59.72;99513.50;5000860;28;20042;-63
2022/11/02 09:05:16;;;;;;;10.70;6.38;;;;;;;21.97;62.06;99509.41;4999832;28;20050;-62
2022/11/02 09:08:04;;;;;;;11.35;6.43;;;;;;;21.76;62.36;99502.63;4999882;28;20056;-62
2022/11/02 09:10:50;;;;;;;14.98;5.97;;;;;;;21.77;63.21;99500.81;4988915;28;20520;-62
2022/11/02 09:13:37;;;;;;;14.30;6.30;;;;;;;22.67;62.17;99509.22;4986171;28;20060;-64
2022/11/02 09:16:21;;;;;;;12.23;6.35;;;;;;;23.21;58.42;99505.16;4971842;28;20058;-62
2022/11/02 09:19:06;;;;;;;9.60;6.03;;;;;;;22.90;61.03;99505.88;4993079;28;20084;-61
2022/11/02 09:21:53;;;;;;;13.30;6.82;;;;;;;23.84;56.50;99501.00;4994708;28;20142;-60
2022/11/02 09:24:39;;;;;;;9.43;5.95;;;;;;;24.48;55.04;99493.78;4988753;28;20050;-62
2022/11/02 09:27:23;;;;;;;10.50;6.20;;;;;;;24.60;53.75;99484.31;4997288;28;20104;-63
2022/11/02 09:30:16;;;;;;;10.18;6.00;;;;;;;24.05;55.20;99489.69;4959141;28;20050;-60
2022/11/02 09:33:05;;;;;;;9.15;5.88;;;;;;;24.33;54.54;99477.66;4959863;28;20174;-59
2022/11/02 09:35:50;;;;;;;10.40;6.13;;;;;;;24.40;53.44;99483.94;4972894;28;20084;-59
2022/11/02 09:38:34;;;;;;;12.48;6.70;;;;;;;23.63;55.77;99481.03;4960676;28;20047;-59
2022/11/02 09:41:25;;;;;;;10.77;5.97;;;;;;;24.06;54.21;99479.78;4974300;28;20407;-64
2022/11/02 09:44:29;;;;;;;10.38;6.63;;;;;;;24.31;54.68;99477.84;4972641;28;20038;-63
2022/11/02 09:47:14;;;;;;;12.25;5.88;;;;;;;24.71;53.92;99476.88;4971482;28;20498;-60
2022/11/02 09:50:01;;;;;;;17.00;6.68;;;;;;;25.05;52.85;99478.22;4976316;28;20046;-60
2022/11/02 09:52:56;;;;;;;13.07;6.15;;;;;;;25.17;52.13;99467.06;4972169;28;20140;-61
2022/11/02 09:55:51;;;;;;;10.75;5.70;;;;;;;25.57;50.40;99474.81;4953013;28;20043;-62
2022/11/02 09:58:39;;;;;;;8.75;5.07;;;;;;;25.06;52.26;99471.03;4972298;28;20042;-60
2022/11/02 10:02:01;;;;;;;8.95;5.72;;;;;;;25.60;51.64;99466.41;4988073;28;20046;-62
2022/11/02 10:05:11;;;;;;;12.85;6.13;;;;;;;25.07;51.11;99467.31;4968034;28;20172;-64
2022/11/02 10:08:08;;;;;;;14.05;6.30;;;;;;;24.90;51.02;99466.66;4970142;28;20150;-64
2022/11/02 10:11:31;;;;;;;10.43;5.50;;;;;;;24.23;53.76;99469.88;4971043;28;20569;-62
2022/11/02 10:14:38;;;;;;;8.40;5.30;;;;;;;24.44;53.33;99474.56;4926519;29;20047;-64
2022/11/02 10:17:29;;;;;;;9.55;5.65;;;;;;;22.96;55.68;99467.81;4927096;29;20077;-65
2022/11/02 10:20:40;;;;;;;8.30;5.53;;;;;;;22.52;57.84;99477.00;4932626;29;20909;-62
2022/11/02 10:23:31;;;;;;;9.32;4.43;;;;;;;23.37;55.41;99474.06;4931212;29;20062;-63
2022/11/02 10:26:18;;;;;;;;;;;;;;;23.42;55.03;99473.59;4932992;29;20063;-61
2022/11/02 10:29:17;;;;;;;10.40;4.88;;;;;;;24.39;52.22;99482.28;4931307;29;19974;-62
2022/11/02 10:32:02;;;;;;;7.55;4.40;;;;;;;24.66;51.65;99477.38;4938373;28;20043;-62
2022/11/02 10:34:47;;;;;;;7.40;4.18;;;;;;;25.20;50.39;99472.06;4936685;29;20103;-62
2022/11/02 10:38:03;;;;;;;8.63;4.57;;;;;;;25.12;50.13;99469.47;4934630;28;20111;-62
2022/11/02 10:41:04;;;;;;;8.40;4.40;;;;;;;23.69;54.49;99466.97;4938596;28;20042;-63
2022/11/02 10:44:17;;;;;;;8.35;4.85;;;;;;;23.95;53.20;99468.50;4931067;29;20119;-62
2022/11/02 10:47:12;;;;;;;10.05;4.32;;;;;;;23.43;55.18;99464.56;4943815;28;20055;-62
2022/11/02 10:50:15;;;;;;;8.18;4.10;;;;;;;23.80;54.88;99460.38;4953596;28;20089;-62
2022/11/02 10:53:01;;;;;;;7.22;3.97;;;;;;;24.29;53.35;99469.16;4992834;28;20420;-61
2022/11/02 10:56:23;;;;;;;11.18;5.00;;;;;;;24.21;53.07;99467.38;4989928;28;20453;-64
2022/11/02 10:59:12;;;;;;;8.70;4.63;;;;;;;21.98;58.82;99472.91;4926924;29;20061;-63
2022/11/02 11:02:03;;;;;;;10.52;5.43;;;;;;;21.27;61.27;99466.75;4928133;29;20130;-62
2022/11/02 11:04:48;;;;;;;10.00;4.90;;;;;;;21.51;61.65;99461.72;4929129;29;20563;-61
2022/11/02 11:07:32;;;;;;;9.20;4.80;;;;;;;20.93;62.70;99464.88;4929732;29;20131;-62
2022/11/02 11:10:17;;;;;;;10.10;5.10;;;;;;;21.78;61.43;99467.84;4928954;29;20043;-61
2022/11/02 11:13:02;;;;;;;11.30;5.35;;;;;;;21.89;60.14;99451.53;4929253;29;20056;-62
2022/11/02 11:15:50;;;;;;;11.20;4.90;;;;;;;21.37;62.05;99453.31;4921616;29;20055;-61
2022/11/02 11:18:36;;;;;;;8.13;5.10;;;;;;;21.15;62.48;99447.53;4929119;29;20078;-61
2022/11/02 11:21:29;;;;;;;9.30;4.22;;;;;;;21.69;60.15;99452.78;4929033;29;20047;-61
2022/11/02 11:24:30;;;;;;;6.05;4.03;;;;;;;22.22;59.45;99453.44;4928567;29;20130;-60
2022/11/02 11:27:18;;;;;;;;;;;;;;;21.93;60.78;99446.72;4930669;29;20081;-61
2022/11/02 11:30:28;;;;;;;7.57;4.20;;;;;;;22.80;58.81;99433.13;4928315;29;19930;-60
2022/11/02 11:33:17;;;;;;;7.88;3.85;;;;;;;23.18;56.84;99436.03;4958968;28;20521;-61
2022/11/02 11:36:02;;;;;;;6.30;3.33;;;;;;;22.84;57.92;99434.44;5001031;28;20606;-62
2022/11/02 11:38:49;;;;;;;7.57;3.80;;;;;;;22.19;59.57;99436.94;4995059;28;20080;-60
2022/11/02 11:41:39;;;;;;;7.75;4.50;;;;;;;22.03;59.36;99434.06;4996546;28;20054;-61
2022/11/02 11:44:24;;;;;;;8.47;4.27;;;;;;;20.83;63.39;99432.16;4993980;28;20050;-60
2022/11/02 11:47:11;;;;;;;6.55;3.60;;;;;;;21.41;62.12;99436.00;4995783;28;20047;-60
2022/11/02 11:50:01;;;;;;;9.18;3.95;;;;;;;21.31;62.11;99434.47;4980599;28;20141;-61
2022/11/02 11:53:16;;;;;;;10.45;4.18;;;;;;;21.75;61.36;99430.81;4989965;28;20054;-62
2022/11/02 11:56:01;;;;;;;9.15;4.30;;;;;;;21.16;62.28;99430.56;4995740;28;20545;-61
2022/11/02 11:58:50;;;;;;;7.85;3.47;;;;;;;21.22;63.68;99423.78;4993074;28;20451;-60
2022/11/02 12:01:39;;;;;;;7.65;3.67;;;;;;;21.77;62.23;99426.16;5003602;28;20049;-59
2022/11/02 12:04:29;;;;;;;8.00;3.72;;;;;;;21.27;62.94;99421.47;4990025;28;20391;-60
2022/11/02 12:07:39;;;;;;;6.80;3.78;;;;;;;21.34;62.98;99423.50;4997570;28;20046;-60
2022/11/02 12:10:29;;;;;;;10.50;4.32;;;;;;;21.06;64.60;99416.53;4991239;28;21431;-59
2022/11/02 12:13:17;;;;;;;8.93;4.20;;;;;;;21.41;63.59;99422.69;4984654;28;20560;-62
2022/11/02 12:16:21;;;;;;;7.38;4.07;;;;;;;22.12;61.14;99421.59;5001246;28;20069;-62
2022/11/02 12:19:29;;;;;;;9.07;3.95;;;;;;;21.94;61.54;99408.38;4997854;28;20504;-62
2022/11/02 12:22:32;;;;;;;6.10;3.45;;;;;;;21.83;62.37;99408.69;4980229;28;20070;-60
2022/11/02 12:25:43;;;;;;;6.47;3.33;;;;;;;22.46;59.95;99397.56;4997225;28;20044;-61
2022/11/02 12:28:51;;;;;;;6.70;3.70;;;;;;;22.02;60.52;99386.22;4987333;28;20224;-62
2022/11/02 12:31:40;;;;;;;5.55;3.15;;;;;;;21.60;62.89;99387.94;4941545;28;20121;-61
2022/11/02 12:35:06;;;;;;;9.77;3.30;;;;;;;22.03;61.27;99387.91;4939621;28;20208;-59
2022/11/02 12:37:59;;;;;;;7.68;2.60;;;;;;;21.35;57.42;99394.03;4894909;29;20492;-59
2022/11/02 12:41:12;;;;;;;2.30;1.45;;;;;;;20.84;57.21;99388.59;4880320;29;20479;-59
2022/11/02 12:44:15;;;;;;;3.97;1.73;;;;;;;20.87;56.54;99372.28;4895947;29;20052;-61
2022/11/02 12:47:28;;;;;;;4.90;1.42;;;;;;;21.49;54.17;99389.09;4893452;29;20049;-60
2022/11/02 12:50:40;;;;;;;3.75;1.30;;;;;;;21.20;55.05;99393.78;4894738;29;20433;-61
2022/11/02 12:53:49;;;;;;;3.25;1.48;;;;;;;21.42;53.92;99386.22;4889539;29;20048;-58
2022/11/02 12:56:49;;;;;;;2.92;1.63;;;;;;;20.50;56.15;99379.56;4892525;29;20064;-62
2022/11/02 12:59:34;;;;;;;3.88;1.35;;;;;;;20.27;55.90;99380.03;4874485;29;20059;-59
2022/11/02 13:02:58;;;;;;;4.60;1.52;;;;;;;20.89;54.68;99383.63;4884181;29;20048;-59
2022/11/02 13:05:52;;;;;;;2.38;1.20;;;;;;;21.21;53.88;99390.16;4861764;29;20045;-59
2022/11/02 13:08:56;;;;;;;5.13;2.15;;;;;;;20.87;54.25;99373.13;4885355;29;20056;-58
2022/11/02 13:11:53;;;;;;;3.75;1.60;;;;;;;20.08;57.29;99381.00;4902426;28;20569;-60
2022/11/02 13:15:04;;;;;;;5.88;2.05;;;;;;;20.09;57.24;99394.16;4943909;29;20098;-59
2022/11/02 13:17:55;;;;;;;3.80;1.60;;;;;;;20.14;57.52;99391.06;4945050;28;20122;-57
2022/11/02 13:20:44;;;;;;;3.67;1.80;;;;;;;19.94;58.27;99385.88;4943744;29;20047;-61
2022/11/02 13:23:50;;;;;;;4.32;1.88;;;;;;;19.84;59.07;99387.75;4931323;29;20092;-58